Time;durP1;ratioP1;P1;durP2;ratioP2;P2;SDS_P1;SDS_P2;PMS_P1;PMS_P2;Temp;Humidity;BMP_temperature;BMP_pressure;BME280_temperature;BME280_humidity;BME280_pressure;Samples;Min_cycle;Max_cycle;Signal;HPM_P1;HPM_P2
2022/06/05 00:01:20;;;;;;;10.73;10.03;;;19.20;96.80;;;;;;4916936;29;20186;-70
2022/06/05 00:04:26;;;;;;;10.37;9.57;;;19.20;97.00;;;;;;4916059;29;20216;-70
2022/06/05 00:07:09;;;;;;;10.27;9.57;;;19.20;97.10;;;;;;4854373;29;20506;-70
2022/06/05 00:09:54;;;;;;;10.23;9.53;;;19.10;97.10;;;;;;4916020;29;20407;-71
2022/06/05 00:12:31;;;;;;;10.27;9.57;;;19.00;97.40;;;;;;4916858;29;20426;-70
2022/06/05 00:14:56;;;;;;;9.70;9.10;;;19.00;97.40;;;;;;4916750;29;20394;-71
2022/06/05 00:17:22;;;;;;;11.47;10.67;;;19.00;97.60;;;;;;4916649;29;20422;-71
2022/06/05 00:19:52;;;;;;;9.60;9.00;;;19.10;97.80;;;;;;4915770;29;20278;-70
2022/06/05 00:22:19;;;;;;;10.27;9.57;;;19.20;97.60;;;;;;4916532;29;20214;-70
2022/06/05 00:24:45;;;;;;;11.13;10.20;;;19.20;97.40;;;;;;4915746;29;20414;-70
2022/06/05 00:27:28;;;;;;;10.77;9.97;;;19.20;97.20;;;;;;4916581;29;20429;-70
2022/06/05 00:30:34;;;;;;;10.43;9.70;;;19.20;97.10;;;;;;4915555;29;20502;-70
2022/06/05 00:33:10;;;;;;;10.10;9.40;;;19.20;97.10;;;;;;4905726;29;20532;-70
2022/06/05 00:35:55;;;;;;;10.70;10.00;;;19.20;97.30;;;;;;4915657;29;20408;-70
2022/06/05 00:38:51;;;;;;;10.27;9.57;;;19.20;97.30;;;;;;4916231;29;20490;-70
2022/06/05 00:41:50;;;;;;;9.87;9.20;;;19.20;97.20;;;;;;4916517;29;20409;-70
2022/06/05 00:44:19;;;;;;;11.00;10.23;;;19.00;97.30;;;;;;4916290;29;20466;-70
2022/06/05 00:46:47;;;;;;;9.63;8.93;;;18.90;97.60;;;;;;4915553;29;20764;-70
2022/06/05 00:49:12;;;;;;;10.43;9.73;;;19.00;97.80;;;;;;4916033;29;20423;-70
2022/06/05 00:51:39;;;;;;;10.40;9.70;;;19.00;97.90;;;;;;4915764;29;20566;-70
2022/06/05 00:54:05;;;;;;;10.10;9.40;;;19.00;97.90;;;;;;4916271;29;20462;-70
2022/06/05 00:56:31;;;;;;;10.90;10.00;;;19.00;97.80;;;;;;4916150;29;20512;-70
2022/06/05 00:58:57;;;;;;;10.60;9.80;;;19.00;97.80;;;;;;4915311;29;20415;-70
2022/06/05 01:01:23;;;;;;;11.10;10.10;;;19.00;98.00;;;;;;4916286;29;20998;-70
2022/06/05 01:03:49;;;;;;;10.60;9.80;;;18.90;98.00;;;;;;4915228;29;20218;-70
2022/06/05 01:06:15;;;;;;;10.63;9.93;;;18.80;98.20;;;;;;4916115;29;20641;-70
2022/06/05 01:08:41;;;;;;;11.20;10.40;;;18.80;98.50;;;;;;4915175;29;20414;-70
2022/06/05 01:11:06;;;;;;;10.40;9.70;;;18.80;98.60;;;;;;4915961;29;20201;-70
2022/06/05 01:14:10;;;;;;;10.80;10.10;;;18.80;98.60;;;;;;4915972;29;20419;-74
2022/06/05 01:16:42;;;;;;;11.40;10.50;;;18.80;99.00;;;;;;4915205;29;20543;-74
2022/06/05 01:19:37;;;;;;;10.80;10.00;;;18.80;98.90;;;;;;4915871;29;20874;-70
2022/06/05 01:22:31;;;;;;;10.73;9.93;;;18.70;99.00;;;;;;4915947;29;20411;-70
2022/06/05 01:25:17;;;;;;;11.37;10.47;;;18.70;99.20;;;;;;4850883;29;20438;-70
2022/06/05 01:27:49;;;;;;;11.20;10.40;;;18.70;99.00;;;;;;4915103;29;20437;-70
2022/06/05 01:30:21;;;;;;;11.73;10.83;;;18.70;99.00;;;;;;4915885;29;20748;-70
2022/06/05 01:32:58;;;;;;;11.70;10.80;;;18.70;99.10;;;;;;4915133;29;20450;-70
2022/06/05 01:35:43;;;;;;;10.53;9.77;;;18.60;99.10;;;;;;4915860;29;20394;-70
2022/06/05 01:38:23;;;;;;;11.70;10.80;;;18.70;99.30;;;;;;4915937;29;20891;-70
2022/06/05 01:40:54;;;;;;;10.43;9.63;;;18.60;99.10;;;;;;4915039;29;20407;-70
2022/06/05 01:43:24;;;;;;;10.63;9.93;;;18.70;99.20;;;;;;4915726;29;20496;-70
2022/06/05 01:46:01;;;;;;;10.63;9.90;;;18.70;99.10;;;;;;4914899;29;20542;-70
2022/06/05 01:48:33;;;;;;;11.37;10.57;;;18.60;99.00;;;;;;4916490;29;20911;-70
2022/06/05 01:51:06;;;;;;;11.10;10.40;;;18.50;99.20;;;;;;4918551;29;20394;-70
2022/06/05 01:53:45;;;;;;;11.57;10.77;;;18.40;99.60;;;;;;4919334;29;20461;-70
2022/06/05 01:56:37;;;;;;;11.50;10.53;;;18.50;99.60;;;;;;4919509;29;20399;-70
2022/06/05 01:59:18;;;;;;;11.10;10.30;;;18.40;99.70;;;;;;4918996;29;20422;-70
2022/06/05 02:01:49;;;;;;;11.23;10.43;;;18.30;99.90;;;;;;4918609;29;20391;-70
2022/06/05 02:04:23;;;;;;;11.60;10.80;;;18.30;99.90;;;;;;4919169;29;20449;-70
2022/06/05 02:06:54;;;;;;;11.97;11.00;;;18.30;99.90;;;;;;4917999;29;20941;-70
2022/06/05 02:09:28;;;;;;;11.47;10.67;;;18.20;99.90;;;;;;4902133;29;20490;-70
2022/06/05 02:11:55;;;;;;;11.80;11.00;;;18.20;99.90;;;;;;4918140;29;20426;-70
2022/06/05 02:14:20;;;;;;;11.83;10.93;;;18.10;99.90;;;;;;4918840;29;20432;-70
2022/06/05 02:16:46;;;;;;;12.17;11.10;;;18.10;99.90;;;;;;4918117;29;20406;-70
2022/06/05 02:19:18;;;;;;;12.33;11.33;;;18.10;99.90;;;;;;4918525;29;20307;-70
2022/06/05 02:21:45;;;;;;;12.57;11.67;;;18.10;99.90;;;;;;4917943;29;20497;-70
2022/06/05 02:24:12;;;;;;;12.63;11.73;;;18.00;99.90;;;;;;4918776;29;20813;-70
2022/06/05 02:26:39;;;;;;;11.50;10.70;;;18.00;99.90;;;;;;4918051;29;20970;-75
2022/06/05 02:29:21;;;;;;;11.83;11.00;;;18.00;99.90;;;;;;4918585;29;20411;-70
2022/06/05 02:32:11;;;;;;;11.67;10.87;;;17.90;99.90;;;;;;4918025;29;20402;-71
2022/06/05 02:34:51;;;;;;;11.83;11.03;;;17.90;99.90;;;;;;4918396;29;20766;-74
2022/06/05 02:37:37;;;;;;;11.20;10.40;;;17.80;99.90;;;;;;4918543;29;20413;-70
2022/06/05 02:40:30;;;;;;;11.07;10.27;;;17.70;99.90;;;;;;4918499;29;20399;-70
2022/06/05 02:43:11;;;;;;;11.67;10.87;;;17.70;99.90;;;;;;4917714;29;20549;-70
2022/06/05 02:45:46;;;;;;;11.90;11.03;;;17.70;99.90;;;;;;4918182;29;20906;-73
2022/06/05 02:48:28;;;;;;;11.73;10.73;;;17.60;99.90;;;;;;4918257;29;20422;-70
2022/06/05 02:51:10;;;;;;;12.13;11.23;;;17.60;99.90;;;;;;4917497;29;20786;-70
2022/06/05 02:53:47;;;;;;;11.07;10.37;;;17.70;99.90;;;;;;4918286;29;20407;-70
2022/06/05 02:56:13;;;;;;;11.20;10.40;;;17.80;99.90;;;;;;4918262;29;20419;-70
2022/06/05 02:58:39;;;;;;;10.30;9.57;;;17.80;99.90;;;;;;4917923;29;20403;-74
2022/06/05 03:03:49;;;;;;;10.97;10.17;;;17.90;99.90;;;;;;4917160;29;20202;-71
2022/06/05 03:06:15;;;;;;;11.27;10.40;;;18.00;99.90;;;;;;4900944;29;20434;-70
2022/06/05 03:08:41;;;;;;;11.40;10.60;;;18.00;99.90;;;;;;4917462;29;20210;-74
2022/06/05 03:11:07;;;;;;;11.73;10.83;;;18.00;99.90;;;;;;4917600;29;20457;-70
2022/06/05 03:13:33;;;;;;;11.30;10.50;;;18.10;99.90;;;;;;4917835;29;20317;-70
2022/06/05 03:15:59;;;;;;;10.80;10.00;;;18.10;99.90;;;;;;4917252;29;20368;-70
2022/06/05 03:18:25;;;;;;;11.73;10.93;;;18.10;99.90;;;;;;4917317;29;20481;-70
2022/06/05 03:20:58;;;;;;;12.70;11.80;;;18.10;99.90;;;;;;4916909;29;20198;-70
2022/06/05 03:23:25;;;;;;;11.13;10.37;;;18.20;99.90;;;;;;4900778;29;20776;-70
2022/06/05 03:25:51;;;;;;;11.30;10.60;;;18.20;99.90;;;;;;4916786;29;20774;-70
2022/06/05 03:28:16;;;;;;;12.50;11.43;;;18.20;99.90;;;;;;4917898;29;20415;-69
2022/06/05 03:30:43;;;;;;;11.40;10.60;;;18.20;99.90;;;;;;4917426;29;20601;-73
2022/06/05 03:33:10;;;;;;;11.57;10.77;;;18.10;99.90;;;;;;4917033;29;20243;-70
2022/06/05 03:35:42;;;;;;;11.40;10.60;;;18.10;99.90;;;;;;4917420;29;20779;-70
2022/06/05 03:38:09;;;;;;;11.70;10.90;;;18.00;99.90;;;;;;4917131;29;20450;-70
2022/06/05 03:40:38;;;;;;;12.47;11.57;;;18.00;99.90;;;;;;4900473;29;20486;-71
2022/06/05 03:43:04;;;;;;;12.10;11.23;;;17.90;99.90;;;;;;4916456;29;20466;-69
2022/06/05 03:45:29;;;;;;;12.00;11.10;;;17.90;99.90;;;;;;4917198;29;20442;-70
2022/06/05 03:47:55;;;;;;;11.50;10.60;;;17.90;99.90;;;;;;4899420;29;20683;-70
2022/06/05 03:50:22;;;;;;;12.00;11.20;;;17.90;99.90;;;;;;4917204;29;20183;-70
2022/06/05 03:52:47;;;;;;;11.90;10.90;;;17.90;99.90;;;;;;4916394;29;20241;-71
2022/06/05 03:55:17;;;;;;;11.80;10.90;;;17.80;99.90;;;;;;4917262;29;20430;-70
2022/06/05 03:57:43;;;;;;;11.23;10.43;;;17.60;99.90;;;;;;4916797;29;20229;-74
2022/06/05 04:00:10;;;;;;;12.77;11.87;;;17.60;99.90;;;;;;4916521;29;20418;-70
2022/06/05 04:02:36;;;;;;;11.80;11.00;;;17.50;99.90;;;;;;4900000;29;20214;-70
2022/06/05 04:05:04;;;;;;;11.47;10.67;;;17.50;99.90;;;;;;4916301;29;20747;-70
2022/06/05 04:07:30;;;;;;;11.70;10.80;;;17.60;99.90;;;;;;4916982;29;20275;-70
2022/06/05 04:09:56;;;;;;;12.13;11.23;;;17.60;99.90;;;;;;4915756;29;20423;-70
2022/06/05 04:12:22;;;;;;;12.60;11.63;;;17.70;99.90;;;;;;4916410;29;20927;-70
2022/06/05 04:14:47;;;;;;;12.13;11.20;;;17.70;99.90;;;;;;4916079;29;20414;-70
2022/06/05 04:17:13;;;;;;;12.23;11.33;;;17.70;99.90;;;;;;4916700;29;20452;-70
2022/06/05 04:19:39;;;;;;;11.90;11.10;;;17.60;99.90;;;;;;4916715;29;20258;-70
2022/06/05 04:22:06;;;;;;;12.17;11.27;;;17.60;99.90;;;;;;4915873;29;20743;-70
2022/06/05 04:24:32;;;;;;;11.90;11.10;;;17.60;99.90;;;;;;4916352;29;20635;-70
2022/06/05 04:26:58;;;;;;;12.87;11.97;;;17.50;99.90;;;;;;4915788;29;20419;-70
2022/06/05 04:29:24;;;;;;;13.43;12.30;;;17.50;99.90;;;;;;4916625;29;20414;-70
2022/06/05 04:31:50;;;;;;;12.30;11.40;;;17.50;99.90;;;;;;4915946;29;20419;-71
2022/06/05 04:34:19;;;;;;;14.53;13.33;;;17.60;99.90;;;;;;4916721;29;20826;-70
2022/06/05 04:36:46;;;;;;;11.43;10.63;;;17.60;99.90;;;;;;4916111;29;20517;-74
2022/06/05 04:39:12;;;;;;;12.53;11.53;;;17.70;99.90;;;;;;4916064;29;20422;-70
2022/06/05 04:41:39;;;;;;;12.33;11.33;;;17.60;99.90;;;;;;4916425;29;20423;-70
2022/06/05 04:44:06;;;;;;;12.43;11.53;;;17.70;99.90;;;;;;4915532;29;20529;-70
2022/06/05 04:46:31;;;;;;;14.07;12.87;;;17.60;99.90;;;;;;4916272;29;20422;-70
2022/06/05 04:48:58;;;;;;;13.60;12.50;;;17.60;99.90;;;;;;4915404;29;20418;-70
2022/06/05 04:51:24;;;;;;;12.53;11.73;;;17.60;99.90;;;;;;4916325;29;20245;-70
2022/06/05 04:53:53;;;;;;;12.30;11.40;;;17.60;99.90;;;;;;4915569;29;20415;-71
2022/06/05 04:56:21;;;;;;;12.17;11.10;;;17.50;99.90;;;;;;4916015;29;20558;-70
2022/06/05 04:58:47;;;;;;;12.03;11.17;;;17.50;99.90;;;;;;4915793;29;20426;-74
2022/06/05 05:01:17;;;;;;;12.30;11.43;;;17.50;99.90;;;;;;4915783;29;20421;-70
2022/06/05 05:03:43;;;;;;;11.77;10.97;;;17.50;99.90;;;;;;4916072;29;20520;-71
2022/06/05 05:06:09;;;;;;;10.40;9.50;;;17.40;99.90;;;;;;4915290;29;21111;-70
2022/06/05 05:08:35;;;;;;;11.60;10.80;;;17.40;99.90;;;;;;4916033;29;20418;-70
2022/06/05 05:11:01;;;;;;;14.33;13.03;;;17.40;99.90;;;;;;4915263;29;20925;-70
2022/06/05 05:13:27;;;;;;;12.30;11.40;;;17.50;99.90;;;;;;4916032;29;20812;-70
2022/06/05 05:15:55;;;;;;;11.67;10.77;;;17.50;99.90;;;;;;4915138;29;20793;-70
2022/06/05 05:18:22;;;;;;;12.00;11.10;;;17.50;99.90;;;;;;4915625;29;20470;-70
2022/06/05 05:20:48;;;;;;;12.70;11.70;;;17.60;99.90;;;;;;4915728;29;20407;-75
2022/06/05 05:23:14;;;;;;;11.97;11.17;;;17.70;99.90;;;;;;4915952;29;20536;-70
2022/06/05 05:25:40;;;;;;;11.67;10.87;;;17.80;99.90;;;;;;4919731;29;20624;-70
2022/06/05 05:28:06;;;;;;;11.93;10.93;;;17.90;99.90;;;;;;4918905;29;20174;-70
2022/06/05 05:30:35;;;;;;;12.07;11.17;;;18.00;99.90;;;;;;4919473;29;20925;-70
2022/06/05 05:33:01;;;;;;;11.70;10.90;;;18.00;99.90;;;;;;4918850;29;20777;-70
2022/06/05 05:35:26;;;;;;;11.83;10.87;;;18.10;99.90;;;;;;4887155;29;20434;-70
2022/06/05 05:37:52;;;;;;;12.07;11.23;;;18.20;99.90;;;;;;4918770;29;20186;-71
2022/06/05 05:43:02;;;;;;;10.77;9.97;;;18.30;99.90;;;;;;4918621;29;20559;-70
2022/06/05 05:45:28;;;;;;;11.90;11.00;;;18.40;99.90;;;;;;4919174;29;20429;-70
2022/06/05 05:47:54;;;;;;;11.67;10.80;;;18.40;99.90;;;;;;4918462;29;20774;-70
2022/06/05 05:50:20;;;;;;;11.50;10.60;;;18.40;99.90;;;;;;4919265;29;20182;-70
2022/06/05 05:52:45;;;;;;;11.17;10.10;;;18.50;99.90;;;;;;4919296;29;20187;-70
2022/06/05 05:55:14;;;;;;;12.23;11.33;;;18.50;99.90;;;;;;4918202;29;20421;-70
2022/06/05 05:57:41;;;;;;;11.23;10.43;;;18.50;99.90;;;;;;4919235;29;20182;-70
2022/06/05 06:00:09;;;;;;;11.80;10.90;;;18.50;99.90;;;;;;4918324;29;20425;-70
2022/06/05 06:02:36;;;;;;;12.40;11.50;;;18.50;99.90;;;;;;4919027;29;20470;-70
2022/06/05 06:05:03;;;;;;;12.17;11.27;;;18.40;99.90;;;;;;4918600;29;20422;-70
2022/06/05 06:07:29;;;;;;;13.27;12.17;;;18.40;99.90;;;;;;4919048;29;20418;-70
2022/06/05 06:09:55;;;;;;;11.30;10.50;;;18.50;99.90;;;;;;4918307;29;20461;-71
2022/06/05 06:12:22;;;;;;;12.03;11.00;;;18.60;99.90;;;;;;4919169;29;20422;-70
2022/06/05 06:14:48;;;;;;;10.90;10.20;;;18.60;99.90;;;;;;4918943;29;20458;-70
2022/06/05 06:17:14;;;;;;;12.50;11.60;;;18.70;99.90;;;;;;4900844;29;20461;-70
2022/06/05 06:19:40;;;;;;;11.30;10.60;;;18.70;99.90;;;;;;4919067;29;20277;-70
2022/06/05 06:22:06;;;;;;;11.73;10.87;;;18.80;99.90;;;;;;4918034;29;20186;-70
2022/06/05 06:24:31;;;;;;;12.40;11.60;;;18.80;99.90;;;;;;4918609;29;20542;-71
2022/06/05 06:26:57;;;;;;;12.17;11.33;;;18.90;99.90;;;;;;4917715;29;20414;-71
2022/06/05 06:29:23;;;;;;;12.27;11.20;;;19.00;99.90;;;;;;4901982;29;20221;-71
2022/06/05 06:31:49;;;;;;;11.27;10.47;;;19.00;99.90;;;;;;4901678;29;20595;-70
2022/06/05 06:34:15;;;;;;;10.57;9.87;;;19.10;99.90;;;;;;4917534;29;20426;-70
2022/06/05 06:36:41;;;;;;;11.40;10.67;;;19.10;99.90;;;;;;4918452;29;20462;-70
2022/06/05 06:39:07;;;;;;;11.27;10.57;;;19.20;99.90;;;;;;4917598;29;20178;-69
2022/06/05 06:41:33;;;;;;;11.63;10.87;;;19.20;99.90;;;;;;4918528;29;20182;-70
2022/06/05 06:43:58;;;;;;;11.20;10.40;;;19.20;99.90;;;;;;4900768;29;20467;-70
2022/06/05 06:46:24;;;;;;;11.77;10.97;;;19.20;99.90;;;;;;4918381;29;20430;-70
2022/06/05 06:48:51;;;;;;;12.03;11.20;;;19.20;99.90;;;;;;4918123;29;20182;-70
2022/06/05 06:51:18;;;;;;;11.70;10.80;;;19.20;99.90;;;;;;4917550;29;20195;-70
2022/06/05 06:53:44;;;;;;;10.70;9.90;;;19.20;99.90;;;;;;4918166;29;20509;-70
2022/06/05 06:56:13;;;;;;;11.30;10.40;;;19.30;99.90;;;;;;4917368;29;20450;-70
2022/06/05 06:58:40;;;;;;;11.03;10.10;;;19.40;99.90;;;;;;4918336;29;20426;-70
2022/06/05 07:01:06;;;;;;;12.80;11.90;;;19.20;99.90;;;;;;4917089;29;20934;-70
2022/06/05 07:03:33;;;;;;;12.37;11.43;;;19.10;99.90;;;;;;4918097;29;20462;-70
2022/06/05 07:06:00;;;;;;;13.40;12.10;;;19.10;99.90;;;;;;4916905;29;20411;-70
2022/06/05 07:08:26;;;;;;;11.57;10.67;;;19.10;99.90;;;;;;4917947;29;20421;-70
2022/06/05 07:10:53;;;;;;;10.30;9.60;;;19.00;99.90;;;;;;4917627;29;20410;-70
2022/06/05 07:13:18;;;;;;;12.03;11.13;;;19.10;99.90;;;;;;4916547;29;20514;-68
2022/06/05 07:15:44;;;;;;;11.30;10.40;;;19.00;99.90;;;;;;4917289;29;20966;-68
2022/06/05 07:18:10;;;;;;;11.97;11.13;;;19.10;99.90;;;;;;4916474;29;20182;-68
2022/06/05 07:20:39;;;;;;;12.50;11.40;;;19.20;99.90;;;;;;4900938;29;20186;-68
2022/06/05 07:23:06;;;;;;;12.30;11.40;;;19.10;99.90;;;;;;4916727;29;20198;-68
2022/06/05 07:25:33;;;;;;;12.00;11.10;;;19.20;99.90;;;;;;4923582;29;20422;-69
2022/06/05 07:27:59;;;;;;;12.30;11.40;;;19.30;99.90;;;;;;4925263;29;20414;-68
2022/06/05 07:30:25;;;;;;;12.37;11.47;;;19.30;99.90;;;;;;4900763;29;20461;-69
2022/06/05 07:32:51;;;;;;;15.13;13.67;;;19.30;99.90;;;;;;4901637;29;20186;-69
2022/06/05 07:35:18;;;;;;;18.17;16.40;;;19.30;99.90;;;;;;4923787;29;20430;-68
2022/06/05 07:37:44;;;;;;;12.00;11.17;;;19.60;99.90;;;;;;4907982;29;20414;-68
2022/06/05 07:40:10;;;;;;;12.30;11.40;;;19.60;99.90;;;;;;4926601;29;20925;-68
2022/06/05 07:42:38;;;;;;;12.10;11.10;;;19.40;99.90;;;;;;4924989;29;20201;-68
2022/06/05 07:45:06;;;;;;;20.33;18.30;;;19.30;99.90;;;;;;4923901;29;20917;-68
2022/06/05 07:47:32;;;;;;;21.60;19.40;;;19.40;99.90;;;;;;4924040;29;20462;-69
2022/06/05 07:49:58;;;;;;;37.37;32.83;;;19.70;99.90;;;;;;4927768;29;20925;-69
2022/06/05 07:55:10;;;;;;;12.70;11.80;;;19.80;99.90;;;;;;4923362;29;20610;-69
2022/06/05 07:57:37;;;;;;;51.30;42.73;;;19.80;99.90;;;;;;4922010;29;20477;-68
2022/06/05 08:00:05;;;;;;;13.50;12.50;;;19.80;99.90;;;;;;4915961;29;20427;-69
2022/06/05 08:02:31;;;;;;;12.93;11.90;;;19.90;99.90;;;;;;4916959;29;20470;-68
2022/06/05 08:04:57;;;;;;;20.37;18.63;;;19.90;99.90;;;;;;4923005;29;20410;-73
2022/06/05 08:07:25;;;;;;;12.90;12.00;;;19.90;99.90;;;;;;4923737;29;20417;-68
2022/06/05 08:09:52;;;;;;;18.47;16.77;;;20.00;99.90;;;;;;4909943;29;20265;-69
2022/06/05 08:12:20;;;;;;;46.60;40.90;;;20.20;99.90;;;;;;4924770;29;20517;-69
2022/06/05 08:14:48;;;;;;;13.60;12.50;;;20.40;99.90;;;;;;4907974;29;20413;-69
2022/06/05 08:17:17;;;;;;;62.57;53.93;;;20.50;99.90;;;;;;4918222;29;20493;-68
2022/06/05 08:19:43;;;;;;;13.13;12.00;;;20.70;99.90;;;;;;4918906;29;20460;-68
2022/06/05 08:22:11;;;;;;;55.17;46.00;;;20.90;99.90;;;;;;4924061;29;20774;-68
2022/06/05 08:24:36;;;;;;;38.93;34.60;;;21.10;99.90;;;;;;4925988;29;21006;-68
2022/06/05 08:27:03;;;;;;;52.77;45.47;;;21.20;99.90;;;;;;4923663;29;20497;-69
2022/06/05 08:29:28;;;;;;;41.53;37.00;;;21.30;99.70;;;;;;4926281;29;20523;-68
2022/06/05 08:31:54;;;;;;;61.00;50.77;;;21.40;99.50;;;;;;4928057;29;20418;-68
2022/06/05 08:34:21;;;;;;;38.17;33.87;;;21.50;99.20;;;;;;4926431;29;20798;-68
2022/06/05 08:36:47;;;;;;;22.80;20.60;;;21.70;99.90;;;;;;4921851;29;20186;-68
2022/06/05 08:42:39;;;;;;;63.33;56.90;;;22.20;99.90;;;;;;4925394;29;20401;-68
2022/06/05 08:45:11;;;;;;;94.50;80.33;;;22.30;99.90;;;;;;4925542;29;20422;-69
2022/06/05 08:47:47;;;;;;;54.43;48.50;;;22.30;99.20;;;;;;4907452;29;20918;-68
2022/06/05 08:50:36;;;;;;;13.00;12.10;;;22.40;98.70;;;;;;4919053;29;20419;-68
2022/06/05 08:53:14;;;;;;;12.13;11.03;;;22.40;99.90;;;;;;4915793;29;20437;-72
2022/06/05 08:55:43;;;;;;;21.80;19.60;;;22.30;99.90;;;;;;4915903;29;20497;-70
2022/06/05 08:58:27;;;;;;;24.80;22.50;;;22.30;99.70;;;;;;4898258;29;20813;-68
2022/06/05 09:00:57;;;;;;;14.30;13.00;;;22.40;99.90;;;;;;4916250;29;20430;-68
2022/06/05 09:03:43;;;;;;;12.13;11.33;;;22.40;99.90;;;;;;4915513;29;20447;-69
2022/06/05 09:06:32;;;;;;;11.63;10.73;;;22.50;99.90;;;;;;4915540;29;20418;-68
2022/06/05 09:09:00;;;;;;;12.97;12.03;;;22.50;99.90;;;;;;4916062;29;20403;-68
2022/06/05 09:11:44;;;;;;;12.60;11.70;;;22.50;99.90;;;;;;4915152;29;20425;-68
2022/06/05 09:14:39;;;;;;;12.43;11.53;;;22.30;99.90;;;;;;4898292;29;20924;-68
2022/06/05 09:17:19;;;;;;;12.80;11.67;;;22.20;99.90;;;;;;4915565;29;20402;-68
2022/06/05 09:19:47;;;;;;;17.00;15.60;;;22.20;99.90;;;;;;4916857;29;20454;-69
2022/06/05 09:22:29;;;;;;;11.77;10.87;;;22.20;99.90;;;;;;4915282;29;20414;-68
2022/06/05 09:25:26;;;;;;;12.13;11.33;;;22.20;99.90;;;;;;4916063;29;20430;-68
2022/06/05 09:28:13;;;;;;;11.10;10.40;;;22.10;99.90;;;;;;4923096;29;20508;-68
2022/06/05 09:30:43;;;;;;;12.20;11.20;;;22.10;98.30;;;;;;4885542;29;20540;-69
2022/06/05 09:33:36;;;;;;;11.33;10.63;;;22.00;99.90;;;;;;4934153;29;20484;-69
2022/06/05 09:36:07;;;;;;;10.60;9.87;;;22.10;99.90;;;;;;4934574;29;20476;-70
2022/06/05 09:38:43;;;;;;;25.57;22.83;;;22.10;99.50;;;;;;4935017;29;20849;-68
2022/06/05 09:41:09;;;;;;;74.87;67.07;;;22.00;98.20;;;;;;4934071;29;20441;-68
2022/06/05 09:43:55;;;;;;;10.27;9.57;;;21.90;98.90;;;;;;4916591;29;20486;-68
2022/06/05 09:46:30;;;;;;;11.10;10.40;;;21.80;99.30;;;;;;4914043;29;20179;-68
2022/06/05 09:49:07;;;;;;;11.13;10.40;;;21.70;99.60;;;;;;4915880;29;20433;-68
2022/06/05 09:51:35;;;;;;;11.40;10.70;;;21.70;99.80;;;;;;4915797;29;20501;-68
2022/06/05 09:54:07;;;;;;;10.90;10.20;;;21.60;99.90;;;;;;4915663;29;20466;-68
2022/06/05 09:56:34;;;;;;;11.27;10.57;;;21.60;99.80;;;;;;4915755;29;20415;-68
2022/06/05 09:59:15;;;;;;;12.40;11.50;;;21.60;99.90;;;;;;4898657;29;20433;-68
2022/06/05 10:01:56;;;;;;;12.10;11.30;;;21.50;99.90;;;;;;4915901;29;20446;-68
2022/06/05 10:04:27;;;;;;;12.53;11.70;;;21.40;99.90;;;;;;4914962;29;20462;-68
2022/06/05 10:07:03;;;;;;;12.83;11.93;;;21.30;99.90;;;;;;4915662;29;20418;-68
2022/06/05 10:09:31;;;;;;;13.70;12.70;;;21.20;99.90;;;;;;4916216;29;20465;-68
2022/06/05 10:12:04;;;;;;;12.90;11.90;;;21.10;99.90;;;;;;4919118;29;20914;-68
2022/06/05 10:14:45;;;;;;;13.63;12.63;;;21.10;99.90;;;;;;4902162;29;20465;-68
2022/06/05 10:17:44;;;;;;;13.50;12.60;;;21.00;99.90;;;;;;4918360;29;20505;-72
2022/06/05 10:20:13;;;;;;;14.47;13.43;;;21.00;99.90;;;;;;4917651;29;20478;-73
2022/06/05 10:22:39;;;;;;;213.90;163.67;;;20.90;99.90;;;;;;4918420;29;20473;-72
2022/06/05 10:25:18;;;;;;;22.17;20.10;;;20.90;99.90;;;;;;4918617;29;20438;-73
2022/06/05 10:27:53;;;;;;;14.37;13.37;;;20.90;99.90;;;;;;4901703;29;20653;-72
2022/06/05 10:30:26;;;;;;;14.67;13.37;;;20.90;99.90;;;;;;4918176;29;20909;-72
2022/06/05 10:33:00;;;;;;;15.13;14.00;;;20.80;99.90;;;;;;4901844;29;20418;-73
2022/06/05 10:35:30;;;;;;;14.23;13.23;;;20.80;99.90;;;;;;4917808;29;20719;-73
2022/06/05 10:38:42;;;;;;;14.47;13.47;;;20.80;99.90;;;;;;4918396;29;20446;-73
2022/06/05 10:41:45;;;;;;;16.43;15.20;;;20.70;99.90;;;;;;4918182;29;20894;-75
2022/06/05 10:44:20;;;;;;;13.23;12.20;;;20.80;99.90;;;;;;4917124;29;20470;-73
2022/06/05 10:47:05;;;;;;;14.80;13.70;;;20.80;99.90;;;;;;4915093;29;20937;-70
2022/06/05 10:49:49;;;;;;;123.30;110.10;;;20.80;99.90;;;;;;4916565;29;20442;-70
2022/06/05 10:52:21;;;;;;;230.47;190.13;;;20.90;99.90;;;;;;4910227;29;20780;-71
2022/06/05 10:54:50;;;;;;;54.03;49.13;;;21.00;99.90;;;;;;4917033;29;20446;-70
2022/06/05 10:57:25;;;;;;;57.80;51.50;;;21.00;99.90;;;;;;4908256;29;20526;-72
2022/06/05 11:00:11;;;;;;;18.73;17.13;;;21.10;99.90;;;;;;4918359;29;20505;-69
2022/06/05 11:03:01;;;;;;;19.63;17.83;;;21.10;99.90;;;;;;4917925;29;20469;-73
2022/06/05 11:06:03;;;;;;;16.57;15.47;;;21.10;99.90;;;;;;4916034;29;20903;-69
2022/06/05 11:08:33;;;;;;;17.00;15.70;;;21.20;99.90;;;;;;4911172;29;20925;-70
2022/06/05 11:14:19;;;;;;;16.43;15.23;;;21.20;99.90;;;;;;4918387;29;20501;-68
2022/06/05 11:17:01;;;;;;;15.70;14.40;;;21.20;99.90;;;;;;4917309;29;20446;-70
2022/06/05 11:19:30;;;;;;;184.40;142.70;;;21.30;99.90;;;;;;4914057;29;20474;-70
2022/06/05 11:22:01;;;;;;;127.17;100.23;;;21.30;99.90;;;;;;4913802;29;20442;-70
2022/06/05 11:24:41;;;;;;;329.27;286.80;;;21.30;99.90;;;;;;4893153;29;20475;-71
2022/06/05 11:27:23;;;;;;;40.30;35.93;;;21.40;99.90;;;;;;4910917;29;20497;-69
2022/06/05 11:29:55;;;;;;;16.97;15.73;;;21.40;99.90;;;;;;4897014;29;20545;-72
2022/06/05 11:32:40;;;;;;;15.30;14.10;;;21.50;99.90;;;;;;4915464;29;20399;-71
2022/06/05 11:35:39;;;;;;;15.77;14.67;;;21.60;99.90;;;;;;4909907;29;20454;-74
2022/06/05 11:38:23;;;;;;;249.73;201.43;;;21.60;99.90;;;;;;4860383;29;20522;-71
2022/06/05 11:41:03;;;;;;;236.60;191.20;;;21.60;99.90;;;;;;4914817;29;20446;-69
2022/06/05 11:43:32;;;;;;;29.27;26.30;;;21.60;99.90;;;;;;4912804;29;20478;-69
2022/06/05 11:46:11;;;;;;;15.33;14.13;;;21.60;99.90;;;;;;4917240;29;20434;-69
2022/06/05 11:48:50;;;;;;;15.40;14.30;;;21.60;99.90;;;;;;4914030;29;20442;-67
2022/06/05 11:51:30;;;;;;;16.27;14.83;;;21.70;99.90;;;;;;4908884;29;20434;-68
2022/06/05 11:54:12;;;;;;;15.17;14.07;;;21.70;99.90;;;;;;4913164;29;20970;-66
2022/06/05 11:56:56;;;;;;;15.33;14.23;;;21.60;99.90;;;;;;4910085;29;20474;-67
2022/06/05 11:59:44;;;;;;;14.60;13.53;;;21.60;99.90;;;;;;4915924;29;20430;-67
2022/06/05 12:02:38;;;;;;;15.37;14.27;;;21.70;99.90;;;;;;4916525;29;20429;-73
2022/06/05 12:05:15;;;;;;;14.17;13.17;;;21.70;99.90;;;;;;4916861;29;20553;-66
2022/06/05 12:07:41;;;;;;;14.20;13.10;;;21.50;99.90;;;;;;4899171;29;20438;-66
2022/06/05 12:10:28;;;;;;;14.33;13.27;;;21.50;99.90;;;;;;4916362;29;20427;-66
2022/06/05 12:13:13;;;;;;;16.10;14.80;;;21.50;99.90;;;;;;4918117;29;20529;-66
2022/06/05 12:15:57;;;;;;;15.33;14.20;;;21.50;99.90;;;;;;4906159;29;20537;-66
2022/06/05 12:18:32;;;;;;;15.57;14.40;;;21.50;99.90;;;;;;4913319;29;20485;-65
2022/06/05 12:21:17;;;;;;;14.60;13.60;;;21.60;99.90;;;;;;4925833;29;20425;-66
2022/06/05 12:23:46;;;;;;;14.87;13.67;;;21.60;99.90;;;;;;4926379;29;20557;-65
2022/06/05 12:26:33;;;;;;;43.13;38.83;;;21.60;99.90;;;;;;4915881;29;20437;-72
2022/06/05 12:29:05;;;;;;;162.80;142.73;;;21.60;99.90;;;;;;4918322;29;20437;-65
2022/06/05 12:32:00;;;;;;;23.93;21.90;;;21.60;99.90;;;;;;4924893;29;20773;-66
2022/06/05 12:34:33;;;;;;;17.10;15.90;;;21.70;99.90;;;;;;4906029;29;20443;-66
2022/06/05 12:37:11;;;;;;;15.43;14.43;;;21.70;99.90;;;;;;4914223;29;20434;-66
2022/06/05 12:39:43;;;;;;;15.30;13.90;;;21.70;99.90;;;;;;4912232;29;20518;-68
2022/06/05 12:42:18;;;;;;;15.07;13.97;;;21.70;99.90;;;;;;4914882;29;20449;-67
2022/06/05 12:44:49;;;;;;;13.90;12.60;;;21.70;99.90;;;;;;4916327;29;20469;-67
2022/06/05 12:47:17;;;;;;;14.30;13.20;;;21.70;99.90;;;;;;4914819;29;20918;-75
2022/06/05 12:49:55;;;;;;;15.00;13.80;;;21.60;99.90;;;;;;4899266;29;20542;-67
2022/06/05 12:52:48;;;;;;;14.60;13.43;;;21.60;99.90;;;;;;4915646;29;20415;-68
2022/06/05 12:55:28;;;;;;;14.20;13.20;;;21.70;99.90;;;;;;4900811;29;20905;-73
2022/06/05 12:58:08;;;;;;;14.87;13.87;;;21.60;99.90;;;;;;4916334;29;20407;-67
2022/06/05 13:00:47;;;;;;;14.80;13.37;;;21.70;99.90;;;;;;4915638;29;20495;-67
2022/06/05 13:03:36;;;;;;;14.20;13.20;;;21.70;99.90;;;;;;4916093;29;20474;-67
2022/06/05 13:06:18;;;;;;;14.20;13.20;;;21.80;99.90;;;;;;4916259;29;20429;-67
2022/06/05 13:09:04;;;;;;;15.00;13.90;;;21.80;99.90;;;;;;4915553;29;20936;-67
2022/06/05 13:12:00;;;;;;;14.83;13.83;;;21.90;99.90;;;;;;4915099;29;20890;-67